createdAt,value
2017-10-15T00:00:18.958Z,17.23
2017-10-15T00:01:22.263Z,13.45
2017-10-15T00:02:24.790Z,18.55
2017-10-15T00:03:27.362Z,15.77
2017-10-15T00:04:30.686Z,23.62
2017-10-15T00:05:33.217Z,14.95
2017-10-15T00:06:36.531Z,20.58
2017-10-15T00:07:39.058Z,15.43
2017-10-15T00:08:41.616Z,12.65
2017-10-15T00:09:44.154Z,9.85
2017-10-15T00:10:46.709Z,11.68
2017-10-15T00:11:49.225Z,13.32
2017-10-15T00:12:52.517Z,12.23
2017-10-15T00:13:55.893Z,11.50
2017-10-15T00:14:59.185Z,12.77
2017-10-15T00:16:02.629Z,10.68
2017-10-15T00:17:05.200Z,13.38
2017-10-15T00:18:07.771Z,10.48
2017-10-15T00:19:10.285Z,14.38
2017-10-15T00:20:12.804Z,12.32
2017-10-15T00:21:15.318Z,11.75
2017-10-15T00:22:17.886Z,10.98
2017-10-15T00:23:21.178Z,12.80
2017-10-15T00:24:23.845Z,14.57
2017-10-15T00:25:26.373Z,13.25
2017-10-15T00:26:28.930Z,8.95
2017-10-15T00:27:31.480Z,10.15
2017-10-15T00:28:33.999Z,12.05
2017-10-15T00:29:36.529Z,10.73
2017-10-15T00:30:39.226Z,19.73
2017-10-15T00:31:41.827Z,13.73
2017-10-15T00:32:44.389Z,13.98
2017-10-15T00:33:46.930Z,17.02
2017-10-15T00:34:50.294Z,11.60
2017-10-15T00:35:53.597Z,15.75
2017-10-15T00:36:56.926Z,20.55
2017-10-15T00:37:59.457Z,14.77
2017-10-15T00:39:01.995Z,17.33
2017-10-15T00:40:04.514Z,12.30
2017-10-15T00:41:07.045Z,12.50
2017-10-15T00:42:10.377Z,23.60
2017-10-15T00:43:12.905Z,17.67
2017-10-15T00:44:15.435Z,16.25
2017-10-15T00:45:17.951Z,17.37
2017-10-15T00:46:20.470Z,13.13
2017-10-15T00:47:23.025Z,12.55
2017-10-15T00:48:25.570Z,11.75
2017-10-15T00:49:28.089Z,15.27
2017-10-15T00:50:30.627Z,16.37
2017-10-15T00:51:33.222Z,21.90
2017-10-15T00:52:36.501Z,15.57
2017-10-15T00:53:39.785Z,19.30
2017-10-15T00:54:43.086Z,18.15
2017-10-15T00:55:45.614Z,12.43
2017-10-15T00:56:48.178Z,17.92
2017-10-15T00:57:50.690Z,18.98
2017-10-15T00:58:53.214Z,20.05
2017-10-15T00:59:55.787Z,15.07
2017-10-15T01:00:59.093Z,16.02
2017-10-15T01:02:01.613Z,11.50
2017-10-15T01:03:04.136Z,12.32
2017-10-15T01:04:07.470Z,19.23
2017-10-15T01:05:10.002Z,16.67
2017-10-15T01:06:12.533Z,13.07
2017-10-15T01:07:15.878Z,11.15
2017-10-15T01:08:18.403Z,16.35
2017-10-15T01:09:20.937Z,13.27
2017-10-15T01:10:23.488Z,12.40
2017-10-15T01:11:26.085Z,14.93
2017-10-15T01:12:29.415Z,13.68
2017-10-15T01:13:31.929Z,14.57
2017-10-15T01:14:35.222Z,12.32
2017-10-15T01:15:38.520Z,24.00
2017-10-15T01:16:41.045Z,33.58
2017-10-15T01:17:43.611Z,20.58
2017-10-15T01:18:46.138Z,14.87
2017-10-15T01:19:48.657Z,15.95
2017-10-15T01:20:51.954Z,19.73
2017-10-15T01:21:54.483Z,11.95
2017-10-15T01:22:57.038Z,9.88
2017-10-15T01:23:59.604Z,14.73
2017-10-15T01:25:02.131Z,11.95
2017-10-15T01:26:04.738Z,11.57
2017-10-15T01:27:07.257Z,9.73
2017-10-15T01:28:09.812Z,13.00
2017-10-15T01:29:13.114Z,14.95
2017-10-15T01:30:15.646Z,9.25
2017-10-15T01:31:18.189Z,11.45
2017-10-15T01:32:20.770Z,15.73
2017-10-15T01:33:23.292Z,11.38
2017-10-15T01:34:25.864Z,13.88
2017-10-15T01:35:28.386Z,11.82
2017-10-15T01:36:31.674Z,15.52
2017-10-15T01:37:34.972Z,9.95
2017-10-15T01:38:37.493Z,13.18
2017-10-15T01:39:40.062Z,8.48
2017-10-15T01:40:42.591Z,12.15
2017-10-15T01:41:45.113Z,11.20
2017-10-15T01:42:47.651Z,14.80
2017-10-15T01:43:50.166Z,9.15
2017-10-15T01:44:52.734Z,12.32
2017-10-15T01:45:55.258Z,13.62
2017-10-15T01:46:57.878Z,19.98
2017-10-15T01:48:00.534Z,11.73
2017-10-15T01:49:03.061Z,10.02
2017-10-15T01:50:05.614Z,11.60
2017-10-15T01:51:08.127Z,11.15
2017-10-15T01:52:11.422Z,7.87
2017-10-15T01:53:13.990Z,11.02
2017-10-15T01:54:16.512Z,14.02
2017-10-15T01:55:19.042Z,10.27
2017-10-15T01:56:21.579Z,12.52
2017-10-15T01:57:24.113Z,13.50
2017-10-15T01:58:26.665Z,13.00
2017-10-15T01:59:29.177Z,12.07
2017-10-15T02:00:31.697Z,11.20
2017-10-15T02:01:34.262Z,20.85
2017-10-15T02:02:36.844Z,11.12
2017-10-15T02:03:39.366Z,16.20
2017-10-15T02:04:41.902Z,16.37
2017-10-15T02:05:45.193Z,13.32
2017-10-15T02:06:48.488Z,11.85
2017-10-15T02:07:51.058Z,13.52
2017-10-15T02:08:53.578Z,12.10
2017-10-15T02:09:56.102Z,16.87
2017-10-15T02:10:58.629Z,15.75
2017-10-15T02:12:01.973Z,13.82
2017-10-15T02:13:04.500Z,15.98
2017-10-15T02:14:07.176Z,13.90
2017-10-15T02:15:09.718Z,13.93
2017-10-15T02:16:13.029Z,18.05
2017-10-15T02:17:15.550Z,12.07
2017-10-15T02:18:18.850Z,16.48
2017-10-15T02:19:22.161Z,19.90
2017-10-15T02:20:24.698Z,16.33
2017-10-15T02:21:28.050Z,15.02
2017-10-15T02:22:30.589Z,13.27
2017-10-15T02:23:33.145Z,16.55
2017-10-15T02:24:35.665Z,13.05
2017-10-15T02:25:38.185Z,14.60
2017-10-15T02:26:40.719Z,14.23
2017-10-15T02:27:43.997Z,14.10
2017-10-15T02:28:47.318Z,10.80
2017-10-15T02:29:49.842Z,13.75
2017-10-15T02:30:53.131Z,12.30
2017-10-15T02:31:56.435Z,15.50
2017-10-15T02:32:58.963Z,16.77
2017-10-15T02:34:02.313Z,14.60
2017-10-15T02:35:04.846Z,15.57
2017-10-15T02:36:07.380Z,26.70
2017-10-15T02:37:09.899Z,13.27
2017-10-15T02:38:12.433Z,13.25
2017-10-15T02:39:14.990Z,17.73
2017-10-15T02:40:17.552Z,13.45
2017-10-15T02:41:20.889Z,28.65
2017-10-15T02:42:23.418Z,12.40
2017-10-15T02:43:25.947Z,14.68
2017-10-15T02:44:28.482Z,22.50
2017-10-15T02:45:31.005Z,15.73
2017-10-15T02:46:34.342Z,18.52
2017-10-15T02:47:36.876Z,14.02
2017-10-15T02:48:39.403Z,15.93
2017-10-15T02:49:42.707Z,17.45
2017-10-15T02:50:46.008Z,14.80
2017-10-15T02:51:48.574Z,13.32
2017-10-15T02:52:51.100Z,12.80
2017-10-15T02:53:53.619Z,14.00
2017-10-15T02:54:56.141Z,11.05
2017-10-15T02:55:59.438Z,10.60
2017-10-15T02:57:02.769Z,11.80
2017-10-15T02:58:05.290Z,11.63
2017-10-15T02:59:08.638Z,11.02
2017-10-15T03:00:11.182Z,14.73
2017-10-15T03:01:13.706Z,14.15
2017-10-15T03:02:17.003Z,10.55
2017-10-15T03:03:19.532Z,12.02
2017-10-15T03:04:22.102Z,10.82
2017-10-15T03:05:24.637Z,14.45
2017-10-15T03:06:27.156Z,10.85
2017-10-15T03:07:30.442Z,16.70
2017-10-15T03:08:32.970Z,11.90
2017-10-15T03:09:35.542Z,11.48
2017-10-15T03:10:38.062Z,10.05
2017-10-15T03:11:40.591Z,10.25
2017-10-15T03:12:43.877Z,8.85
2017-10-15T03:13:47.161Z,15.05
2017-10-15T03:14:50.477Z,10.07
2017-10-15T03:15:53.007Z,11.50
2017-10-15T03:16:56.308Z,11.65
2017-10-15T03:17:58.824Z,9.88
2017-10-15T03:19:01.346Z,8.38
2017-10-15T03:20:03.918Z,9.07
2017-10-15T03:21:06.445Z,8.70
2017-10-15T03:22:08.989Z,10.48
2017-10-15T03:23:11.538Z,9.57
2017-10-15T03:24:14.072Z,10.50
2017-10-15T03:25:16.622Z,7.62
2017-10-15T03:26:19.986Z,9.48
2017-10-15T03:27:22.512Z,7.53
2017-10-15T03:28:25.032Z,10.43
2017-10-15T03:29:28.326Z,13.85
2017-10-15T03:30:31.647Z,10.30
2017-10-15T03:31:34.162Z,8.10
2017-10-15T03:32:36.705Z,10.68
2017-10-15T03:33:39.266Z,7.22
2017-10-15T03:34:41.800Z,11.02
2017-10-15T03:35:44.321Z,13.23
2017-10-15T03:36:46.847Z,7.20
2017-10-15T03:37:49.401Z,11.52
2017-10-15T03:38:51.962Z,8.35
2017-10-15T03:39:54.483Z,7.62
2017-10-15T03:40:57.014Z,9.25
2017-10-15T03:41:59.554Z,7.12
2017-10-15T03:43:02.084Z,7.55
2017-10-15T03:44:04.858Z,7.75
2017-10-15T03:45:07.383Z,8.50
2017-10-15T03:46:09.914Z,7.50
2017-10-15T03:47:13.199Z,8.95
2017-10-15T03:48:15.721Z,6.22
2017-10-15T03:49:18.300Z,9.75
2017-10-15T03:50:20.845Z,8.30
2017-10-15T03:51:23.370Z,14.65
2017-10-15T03:52:25.908Z,6.55
2017-10-15T03:53:29.185Z,7.57
2017-10-15T03:54:31.697Z,5.85
2017-10-15T03:55:34.249Z,10.35
2017-10-15T03:56:36.790Z,7.05
2017-10-15T03:57:40.117Z,8.30
2017-10-15T03:58:42.651Z,7.47
2017-10-15T03:59:45.939Z,9.55
2017-10-15T04:00:49.232Z,8.10
2017-10-15T04:01:51.799Z,7.07
2017-10-15T04:02:54.370Z,9.52
2017-10-15T04:03:56.889Z,12.80
2017-10-15T04:04:59.402Z,8.32
2017-10-15T04:06:01.946Z,10.23
2017-10-15T04:07:05.286Z,9.35
2017-10-15T04:08:07.814Z,7.93
2017-10-15T04:09:10.337Z,7.22
2017-10-15T04:10:12.853Z,15.52
2017-10-15T04:11:15.369Z,8.10
2017-10-15T04:12:17.937Z,9.05
2017-10-15T04:13:20.469Z,7.90
2017-10-15T04:14:22.986Z,12.50
2017-10-15T04:15:26.263Z,8.90
2017-10-15T04:16:28.798Z,16.27
2017-10-15T04:17:31.359Z,8.55
2017-10-15T04:18:33.894Z,10.63
2017-10-15T04:19:36.432Z,12.50
2017-10-15T04:20:39.742Z,9.73
2017-10-15T04:21:42.310Z,11.15
2017-10-15T04:22:45.598Z,9.82
2017-10-15T04:23:48.116Z,8.77
2017-10-15T04:24:50.647Z,11.73
2017-10-15T04:25:53.181Z,15.48
2017-10-15T04:26:56.509Z,14.73
2017-10-15T04:27:59.037Z,11.00
2017-10-15T04:29:01.562Z,8.10
2017-10-15T04:30:04.074Z,9.65
2017-10-15T04:31:06.641Z,8.40
2017-10-15T04:32:09.162Z,11.12
2017-10-15T04:33:11.693Z,10.00
2017-10-15T04:34:14.250Z,6.22
2017-10-15T04:35:16.772Z,8.77
2017-10-15T04:36:20.105Z,9.02
2017-10-15T04:37:22.646Z,7.00
2017-10-15T04:38:25.168Z,8.85
2017-10-15T04:39:27.690Z,7.50
2017-10-15T04:40:30.206Z,12.73
2017-10-15T04:41:32.777Z,8.18
2017-10-15T04:42:35.339Z,7.87
2017-10-15T04:43:37.862Z,7.18
2017-10-15T04:44:40.388Z,13.10
2017-10-15T04:45:43.671Z,7.18
2017-10-15T04:46:47.396Z,6.80
2017-10-15T04:47:49.955Z,16.27
2017-10-15T04:48:52.481Z,11.77
2017-10-15T04:49:54.993Z,26.33
2017-10-15T04:50:57.520Z,18.50
2017-10-15T04:52:00.054Z,28.38
2017-10-15T04:53:02.617Z,9.25
2017-10-15T04:54:05.176Z,24.35
2017-10-15T04:55:07.702Z,11.38
2017-10-15T04:56:10.993Z,26.00
2017-10-15T04:57:14.275Z,22.30
2017-10-15T04:58:16.946Z,25.12
2017-10-15T04:59:19.514Z,12.90
2017-10-15T05:00:22.044Z,7.70
2017-10-15T05:01:24.561Z,7.28
2017-10-15T05:02:27.083Z,6.32
2017-10-15T05:03:30.422Z,14.75
2017-10-15T05:04:32.935Z,11.93
2017-10-15T05:05:35.461Z,10.70
2017-10-15T05:06:37.978Z,9.68
2017-10-15T05:07:41.271Z,11.90
2017-10-15T05:08:43.838Z,23.40
2017-10-15T05:09:47.126Z,10.10
2017-10-15T05:10:49.640Z,11.32
2017-10-15T05:11:52.171Z,9.40
2017-10-15T05:12:54.695Z,8.50
2017-10-15T05:13:57.266Z,9.35
2017-10-15T05:14:59.783Z,12.57
2017-10-15T05:16:02.313Z,11.70
2017-10-15T05:17:05.593Z,16.58
2017-10-15T05:18:08.877Z,16.05
2017-10-15T05:19:12.198Z,13.57
2017-10-15T05:20:14.805Z,11.88
2017-10-15T05:21:17.334Z,15.68
2017-10-15T05:22:19.859Z,14.40
2017-10-15T05:23:23.150Z,9.80
2017-10-15T05:24:26.434Z,10.27
2017-10-15T05:25:29.760Z,15.40
2017-10-15T05:26:32.274Z,11.18
2017-10-15T05:27:35.567Z,16.05
2017-10-15T05:28:38.848Z,10.50
2017-10-15T05:29:42.126Z,22.62
2017-10-15T05:30:45.453Z,16.95
2017-10-15T05:31:47.974Z,14.35
2017-10-15T05:32:51.250Z,9.45
2017-10-15T05:33:53.767Z,10.32
2017-10-15T05:34:56.289Z,8.23
2017-10-15T05:35:59.605Z,7.87
2017-10-15T05:37:02.123Z,9.68
2017-10-15T05:38:04.701Z,11.02
2017-10-15T05:39:07.981Z,7.43
2017-10-15T05:40:11.450Z,7.22
2017-10-15T05:41:13.967Z,7.90
2017-10-15T05:42:16.647Z,9.60
2017-10-15T05:43:19.197Z,9.30
2017-10-15T05:44:21.725Z,9.50
2017-10-15T05:45:24.239Z,12.98
2017-10-15T05:46:26.789Z,10.05
2017-10-15T05:47:29.305Z,7.37
2017-10-15T05:48:31.834Z,9.20
2017-10-15T05:49:34.364Z,8.90
2017-10-15T05:50:37.662Z,8.32
2017-10-15T05:51:40.990Z,9.57
2017-10-15T05:52:43.514Z,9.05
2017-10-15T05:53:46.797Z,7.35
2017-10-15T05:54:50.088Z,7.00
2017-10-15T05:55:52.614Z,7.57
2017-10-15T05:56:55.179Z,7.57
2017-10-15T05:57:57.706Z,8.52
2017-10-15T05:59:00.243Z,17.75
2017-10-15T06:00:03.541Z,8.63
2017-10-15T06:01:06.066Z,12.85
2017-10-15T06:02:08.634Z,15.88
2017-10-15T06:03:11.162Z,9.82
2017-10-15T06:04:13.689Z,11.63
2017-10-15T06:05:16.983Z,12.32
2017-10-15T06:06:19.509Z,13.30
2017-10-15T06:07:22.235Z,8.80
2017-10-15T06:08:24.773Z,12.32
2017-10-15T06:09:28.061Z,9.80
2017-10-15T06:10:31.361Z,10.45
2017-10-15T06:11:33.877Z,10.60
2017-10-15T06:12:36.430Z,9.63
2017-10-15T06:13:38.959Z,10.30
2017-10-15T06:14:41.486Z,11.18
2017-10-15T06:15:44.037Z,11.00
2017-10-15T06:16:46.559Z,11.10
2017-10-15T06:17:49.127Z,8.18
2017-10-15T06:18:51.653Z,14.13
2017-10-15T06:19:54.175Z,8.32
2017-10-15T06:20:56.705Z,8.07
2017-10-15T06:21:59.997Z,10.00
2017-10-15T06:23:02.549Z,10.15
2017-10-15T06:24:05.863Z,11.57
2017-10-15T06:25:08.377Z,7.80
2017-10-15T06:26:10.906Z,7.30
2017-10-15T06:27:13.445Z,10.55
2017-10-15T06:28:16.018Z,6.40
2017-10-15T06:29:18.549Z,10.80
2017-10-15T06:30:21.065Z,9.55
2017-10-15T06:31:23.586Z,15.93
2017-10-15T06:32:26.874Z,9.43
2017-10-15T06:33:30.210Z,9.68
2017-10-15T06:34:32.725Z,11.07
2017-10-15T06:35:36.036Z,14.30
2017-10-15T06:36:38.566Z,11.05
2017-10-15T06:37:41.861Z,10.15
2017-10-15T06:38:45.185Z,13.38
2017-10-15T06:39:47.750Z,17.25
2017-10-15T06:40:50.274Z,12.25
2017-10-15T06:41:53.588Z,13.00
2017-10-15T06:42:56.106Z,13.82
2017-10-15T06:43:58.665Z,22.15
2017-10-15T06:45:01.237Z,25.17
2017-10-15T06:46:03.769Z,10.93
2017-10-15T06:47:06.317Z,16.05
2017-10-15T06:48:08.841Z,34.78
2017-10-15T06:49:11.384Z,39.55
2017-10-15T06:50:13.978Z,32.50
2017-10-15T06:51:16.505Z,24.98
2017-10-15T06:52:19.202Z,19.40
2017-10-15T06:53:21.738Z,21.00
2017-10-15T06:54:24.266Z,21.20
2017-10-15T06:55:26.829Z,28.85
2017-10-15T06:56:30.118Z,22.15
2017-10-15T06:57:33.450Z,18.33
2017-10-15T06:58:35.977Z,22.27
2017-10-15T06:59:38.505Z,14.68
2017-10-15T07:00:41.027Z,13.98
2017-10-15T07:01:43.562Z,12.10
2017-10-15T07:02:46.883Z,12.68
2017-10-15T07:03:49.417Z,11.05
2017-10-15T07:04:52.704Z,12.23
2017-10-15T07:05:55.261Z,13.70
2017-10-15T07:06:58.546Z,11.57
2017-10-15T07:08:01.874Z,16.60
2017-10-15T07:09:04.425Z,10.80
2017-10-15T07:10:06.958Z,13.45
2017-10-15T07:11:10.259Z,13.20
2017-10-15T07:12:12.780Z,12.20
2017-10-15T07:13:15.338Z,11.48
2017-10-15T07:14:17.866Z,12.35
2017-10-15T07:15:20.393Z,13.90
2017-10-15T07:16:22.921Z,11.52
2017-10-15T07:17:25.507Z,13.57
2017-10-15T07:18:28.032Z,20.45
2017-10-15T07:19:30.572Z,13.38
2017-10-15T07:20:33.925Z,17.55
2017-10-15T07:21:36.445Z,14.80
2017-10-15T07:22:38.973Z,15.23
2017-10-15T07:23:41.504Z,13.10
2017-10-15T07:24:44.049Z,13.43
2017-10-15T07:25:46.608Z,16.60
2017-10-15T07:26:49.129Z,15.15
2017-10-15T07:27:51.642Z,11.27
2017-10-15T07:28:54.178Z,13.57
2017-10-15T07:29:57.481Z,11.00
2017-10-15T07:31:00.055Z,17.10
2017-10-15T07:32:02.598Z,15.07
2017-10-15T07:33:05.154Z,14.32
2017-10-15T07:34:08.482Z,15.20
2017-10-15T07:35:11.009Z,13.98
2017-10-15T07:36:14.297Z,12.70
2017-10-15T07:37:17.591Z,15.43
2017-10-15T07:38:20.120Z,14.73
2017-10-15T07:39:22.709Z,21.25
2017-10-15T07:40:25.228Z,14.35
2017-10-15T07:41:27.746Z,11.25
2017-10-15T07:42:31.045Z,13.02
2017-10-15T07:43:33.577Z,14.90
2017-10-15T07:44:36.153Z,13.43
2017-10-15T07:45:39.456Z,14.48
2017-10-15T07:46:42.033Z,12.95
2017-10-15T07:47:44.563Z,14.63
2017-10-15T07:48:47.093Z,17.33
2017-10-15T07:49:49.625Z,15.63
2017-10-15T07:50:52.306Z,16.67
2017-10-15T07:51:54.897Z,15.38
2017-10-15T07:52:57.452Z,16.20
2017-10-15T07:53:59.981Z,14.32
2017-10-15T07:55:03.283Z,15.18
2017-10-15T07:56:05.813Z,15.73
2017-10-15T07:57:08.377Z,18.42
2017-10-15T07:58:10.917Z,15.05
2017-10-15T07:59:13.452Z,15.02
2017-10-15T08:00:15.989Z,16.83
2017-10-15T08:01:19.309Z,16.62
2017-10-15T08:02:22.012Z,15.82
2017-10-15T08:03:24.537Z,18.23
2017-10-15T08:04:27.066Z,18.90
2017-10-15T08:05:29.634Z,17.90
2017-10-15T08:06:32.161Z,16.67
2017-10-15T08:07:34.699Z,13.98
2017-10-15T08:08:37.271Z,19.45
2017-10-15T08:09:39.799Z,15.55
2017-10-15T08:10:43.103Z,22.80
2017-10-15T08:11:45.645Z,23.27
2017-10-15T08:12:48.941Z,21.08
2017-10-15T08:13:52.264Z,15.35
2017-10-15T08:14:54.794Z,20.75
2017-10-15T08:15:58.085Z,20.33
2017-10-15T08:17:00.623Z,13.93
2017-10-15T08:18:03.162Z,20.58
2017-10-15T08:19:05.736Z,18.00
2017-10-15T08:20:08.258Z,19.50
2017-10-15T08:21:11.250Z,21.12
2017-10-15T08:22:13.778Z,17.17
2017-10-15T08:23:17.077Z,17.25
2017-10-15T08:24:21.620Z,16.02
2017-10-15T08:25:24.158Z,19.23
2017-10-15T08:26:26.679Z,17.52
2017-10-15T08:27:29.209Z,15.57
2017-10-15T08:28:31.740Z,16.35
2017-10-15T08:29:35.074Z,19.20
2017-10-15T08:30:37.653Z,16.27
2017-10-15T08:31:40.174Z,21.62
2017-10-15T08:32:42.747Z,15.02
2017-10-15T08:33:45.274Z,19.25
2017-10-15T08:34:47.890Z,16.40
2017-10-15T08:35:50.430Z,14.23
2017-10-15T08:36:52.979Z,13.35
2017-10-15T08:37:56.287Z,16.62
2017-10-15T08:38:58.824Z,20.27
2017-10-15T08:40:01.412Z,15.93
2017-10-15T08:41:03.961Z,18.15
2017-10-15T08:42:06.499Z,17.30
2017-10-15T08:43:09.038Z,15.93
2017-10-15T08:44:11.577Z,14.30
2017-10-15T08:45:14.911Z,13.68
2017-10-15T08:46:17.474Z,12.90
2017-10-15T08:47:20.002Z,15.27
2017-10-15T08:48:23.297Z,15.35
2017-10-15T08:49:25.826Z,13.68
2017-10-15T08:50:28.397Z,13.00
2017-10-15T08:51:31.701Z,12.15
2017-10-15T08:52:34.280Z,15.23
2017-10-15T08:53:36.820Z,21.62
2017-10-15T08:54:40.133Z,21.55
2017-10-15T08:55:42.672Z,15.30
2017-10-15T08:56:45.957Z,15.73
2017-10-15T08:57:49.282Z,21.65
2017-10-15T08:58:51.816Z,11.73
2017-10-15T08:59:55.139Z,17.50
2017-10-15T09:00:57.686Z,20.62
2017-10-15T09:02:00.227Z,10.55
2017-10-15T09:03:02.821Z,18.33
2017-10-15T09:04:05.334Z,12.82
2017-10-15T09:05:07.865Z,12.70
2017-10-15T09:06:10.396Z,22.35
2017-10-15T09:07:13.683Z,17.55
2017-10-15T09:08:16.257Z,10.18
2017-10-15T09:09:18.777Z,11.73
2017-10-15T09:10:21.442Z,14.60
2017-10-15T09:11:23.976Z,14.82
2017-10-15T09:12:26.502Z,12.00
2017-10-15T09:13:29.834Z,13.38
2017-10-15T09:14:32.366Z,14.00
2017-10-15T09:15:34.898Z,14.38
2017-10-15T09:16:37.438Z,12.15
2017-10-15T09:17:39.969Z,10.30
2017-10-15T09:18:42.526Z,10.63
2017-10-15T09:19:45.060Z,9.33
2017-10-15T09:20:47.591Z,13.13
2017-10-15T09:21:50.106Z,8.60
2017-10-15T09:22:53.406Z,11.27
2017-10-15T09:23:56.743Z,10.60
2017-10-15T09:24:59.326Z,9.93
2017-10-15T09:26:01.885Z,11.33
2017-10-15T09:27:04.401Z,8.70
2017-10-15T09:28:06.926Z,6.53
2017-10-15T09:29:09.446Z,14.63
2017-10-15T09:30:11.978Z,12.77
2017-10-15T09:31:15.317Z,7.37
2017-10-15T09:32:17.848Z,12.13
2017-10-15T09:33:20.384Z,8.13
2017-10-15T09:34:23.722Z,7.73
2017-10-15T09:35:26.245Z,7.00
2017-10-15T09:36:29.530Z,7.53
2017-10-15T09:37:32.814Z,14.33
2017-10-15T09:38:36.098Z,6.40
2017-10-15T09:39:39.418Z,6.30
2017-10-15T09:40:41.942Z,5.77
2017-10-15T09:41:45.254Z,8.80
2017-10-15T09:42:47.786Z,11.97
2017-10-15T09:43:50.305Z,10.10
2017-10-15T09:44:52.822Z,9.00
2017-10-15T09:45:55.369Z,7.63
2017-10-15T09:46:57.942Z,9.90
2017-10-15T09:48:00.466Z,7.33
2017-10-15T09:49:02.983Z,6.07
2017-10-15T09:50:06.291Z,8.60
2017-10-15T09:51:08.822Z,5.90
2017-10-15T09:52:11.381Z,5.47
2017-10-15T09:53:13.901Z,7.23
2017-10-15T09:54:16.427Z,8.53
2017-10-15T09:55:18.946Z,6.77
2017-10-15T09:56:21.454Z,7.27
2017-10-15T09:57:24.012Z,13.10
2017-10-15T09:58:26.543Z,12.53
2017-10-15T09:59:29.118Z,6.40
2017-10-15T10:00:31.650Z,5.90
2017-10-15T10:01:34.180Z,6.07
2017-10-15T10:02:36.694Z,7.93
2017-10-15T10:03:39.219Z,4.80
2017-10-15T10:04:41.782Z,6.53
2017-10-15T10:05:45.079Z,7.93
2017-10-15T10:06:49.062Z,10.83
2017-10-15T10:07:51.594Z,5.60
2017-10-15T10:08:54.121Z,10.03
2017-10-15T10:09:57.457Z,10.83
2017-10-15T10:10:59.986Z,15.73
2017-10-15T10:12:02.515Z,12.70
2017-10-15T10:13:05.816Z,6.00
2017-10-15T10:14:09.162Z,7.70
2017-10-15T10:15:11.695Z,7.00
2017-10-15T10:16:14.225Z,11.70
2017-10-15T10:17:17.520Z,10.23
2017-10-15T10:18:20.051Z,8.37
2017-10-15T10:19:22.614Z,8.00
2017-10-15T10:20:25.149Z,15.13
2017-10-15T10:21:27.705Z,8.63
2017-10-15T10:22:30.314Z,5.23
2017-10-15T10:23:32.834Z,5.90
2017-10-15T10:24:35.363Z,19.17
2017-10-15T10:25:37.901Z,13.13
2017-10-15T10:26:40.418Z,5.53
2017-10-15T10:27:42.982Z,7.33
2017-10-15T10:28:45.525Z,5.83
2017-10-15T10:29:48.062Z,12.53
2017-10-15T10:30:50.594Z,18.93
2017-10-15T10:31:53.113Z,7.70
2017-10-15T10:32:55.669Z,8.93
2017-10-15T10:33:58.209Z,27.13
2017-10-15T10:35:00.737Z,9.90
2017-10-15T10:36:04.026Z,7.30
2017-10-15T10:37:07.318Z,6.40
2017-10-15T10:38:09.889Z,7.20
2017-10-15T10:39:12.449Z,4.30
2017-10-15T10:40:14.973Z,8.90
2017-10-15T10:41:17.494Z,6.63
2017-10-15T10:42:20.012Z,11.93
2017-10-15T10:43:22.529Z,8.77
2017-10-15T10:44:25.244Z,6.37
2017-10-15T10:45:27.773Z,6.70
2017-10-15T10:46:30.298Z,9.37
2017-10-15T10:47:33.587Z,8.10
2017-10-15T10:48:41.970Z,5.20
2017-10-15T10:49:44.535Z,8.40
2017-10-15T10:50:47.061Z,9.30
2017-10-15T10:51:49.586Z,5.67
2017-10-15T10:52:52.882Z,8.60
2017-10-15T10:53:55.407Z,7.30
2017-10-15T10:54:57.975Z,6.63
2017-10-15T10:56:00.507Z,4.30
2017-10-15T10:57:03.066Z,4.83
2017-10-15T10:58:05.610Z,7.47
2017-10-15T10:59:08.133Z,7.53
2017-10-15T11:00:10.709Z,6.50
2017-10-15T11:01:13.247Z,4.70
2017-10-15T11:02:15.774Z,4.20
2017-10-15T11:03:18.306Z,4.23
2017-10-15T11:04:20.841Z,6.13
2017-10-15T11:05:23.406Z,7.53
2017-10-15T11:06:26.126Z,4.90
2017-10-15T11:07:29.408Z,3.80
2017-10-15T11:08:32.707Z,8.20
2017-10-15T11:09:35.259Z,12.93
2017-10-15T11:10:38.550Z,4.03
2017-10-15T11:11:41.872Z,5.40
2017-10-15T11:12:44.402Z,5.70
2017-10-15T11:13:47.692Z,9.67
2017-10-15T11:14:50.979Z,4.17
2017-10-15T11:15:53.578Z,11.57
2017-10-15T11:16:56.101Z,7.43
2017-10-15T11:17:59.385Z,7.53
2017-10-15T11:19:02.682Z,13.50
2017-10-15T11:20:05.213Z,6.70
2017-10-15T11:21:07.774Z,5.67
2017-10-15T11:22:10.302Z,9.40
2017-10-15T11:23:12.831Z,4.10
2017-10-15T11:24:16.151Z,6.37
2017-10-15T11:25:18.668Z,5.70
2017-10-15T11:26:21.186Z,8.00
2017-10-15T11:27:23.699Z,5.30
2017-10-15T11:28:26.230Z,6.90
2017-10-15T11:29:28.793Z,7.03
2017-10-15T11:30:31.316Z,5.40
2017-10-15T11:31:34.609Z,3.83
2017-10-15T11:32:37.134Z,6.10
2017-10-15T11:33:39.658Z,8.50
2017-10-15T11:34:42.214Z,4.67
2017-10-15T11:35:44.770Z,4.50
2017-10-15T11:36:47.547Z,3.73
2017-10-15T11:37:50.062Z,8.33
2017-10-15T11:38:52.586Z,4.40
2017-10-15T11:39:55.140Z,3.90
2017-10-15T11:40:57.666Z,11.20
2017-10-15T11:42:00.194Z,6.63
2017-10-15T11:43:02.735Z,4.90
2017-10-15T11:44:06.058Z,5.53
2017-10-15T11:45:08.585Z,4.40
2017-10-15T11:46:11.122Z,4.90
2017-10-15T11:47:13.647Z,6.03
2017-10-15T11:48:16.177Z,13.00
2017-10-15T11:49:19.515Z,4.17
2017-10-15T11:50:22.043Z,5.90
2017-10-15T11:51:24.558Z,8.87
2017-10-15T11:52:27.077Z,3.50
2017-10-15T11:53:29.601Z,3.90
2017-10-15T11:54:32.166Z,9.83
2017-10-15T11:55:34.696Z,4.07
2017-10-15T11:56:37.215Z,7.30
2017-10-15T11:57:40.497Z,4.20
2017-10-15T11:58:43.782Z,6.37
2017-10-15T11:59:47.126Z,10.93
2017-10-15T12:00:49.638Z,4.17
2017-10-15T12:01:52.926Z,4.20
2017-10-15T12:02:55.446Z,3.50
2017-10-15T12:03:57.971Z,4.13
2017-10-15T12:05:00.530Z,5.50
2017-10-15T12:06:03.058Z,6.93
2017-10-15T12:07:05.571Z,6.43
2017-10-15T12:08:08.113Z,5.57
2017-10-15T12:09:11.389Z,5.97
2017-10-15T12:10:14.708Z,6.63
2017-10-15T12:11:17.271Z,4.73
2017-10-15T12:12:19.804Z,5.10
2017-10-15T12:13:23.089Z,5.27
2017-10-15T12:14:26.364Z,10.33
2017-10-15T12:15:29.653Z,6.93
2017-10-15T12:16:32.969Z,7.67
2017-10-15T12:17:35.534Z,4.60
2017-10-15T12:18:38.052Z,6.20
2017-10-15T12:19:40.569Z,5.13
2017-10-15T12:20:43.085Z,7.50
2017-10-15T12:21:45.599Z,3.70
2017-10-15T12:22:48.163Z,8.93
2017-10-15T12:23:50.682Z,4.37
2017-10-15T12:24:53.194Z,3.80
2017-10-15T12:25:55.720Z,5.50
2017-10-15T12:26:58.237Z,3.80
2017-10-15T12:28:00.806Z,6.27
2017-10-15T12:29:03.317Z,3.13
2017-10-15T12:30:05.835Z,3.90
2017-10-15T12:31:08.358Z,5.57
2017-10-15T12:32:11.645Z,4.97
2017-10-15T12:33:14.965Z,3.23
2017-10-15T12:34:17.484Z,6.47
2017-10-15T12:35:20.019Z,12.60
2017-10-15T12:36:22.546Z,3.67
2017-10-15T12:37:25.113Z,7.13
2017-10-15T12:38:27.641Z,3.80
2017-10-15T12:39:30.174Z,4.53
2017-10-15T12:40:32.701Z,4.33
2017-10-15T12:41:35.988Z,4.00
2017-10-15T12:42:39.308Z,5.13
2017-10-15T12:43:41.825Z,6.70
2017-10-15T12:44:45.110Z,5.00
2017-10-15T12:45:48.401Z,4.00
2017-10-15T12:46:51.681Z,8.33
2017-10-15T12:47:55.016Z,3.50
2017-10-15T12:48:57.549Z,5.10
2017-10-15T12:50:00.075Z,4.07
2017-10-15T12:51:02.617Z,3.90
2017-10-15T12:52:05.142Z,4.77
2017-10-15T12:53:07.714Z,3.63
2017-10-15T12:54:10.248Z,3.43
2017-10-15T12:55:13.586Z,4.87
2017-10-15T12:56:16.113Z,6.47
2017-10-15T12:57:19.411Z,9.17
2017-10-15T12:58:21.935Z,3.63
2017-10-15T12:59:24.467Z,4.07
2017-10-15T13:00:27.019Z,3.40
2017-10-15T13:01:29.541Z,4.67
2017-10-15T13:02:32.073Z,7.43
2017-10-15T13:03:34.636Z,7.33
2017-10-15T13:04:37.156Z,5.23
2017-10-15T13:05:40.481Z,4.03
2017-10-15T13:06:43.089Z,4.50
2017-10-15T13:07:45.611Z,3.90
2017-10-15T13:08:48.169Z,7.73
2017-10-15T13:09:50.732Z,5.40
2017-10-15T13:10:53.253Z,4.47
2017-10-15T13:11:55.768Z,3.53
2017-10-15T13:12:58.285Z,5.07
2017-10-15T13:14:00.802Z,4.27
2017-10-15T13:15:03.372Z,7.13
2017-10-15T13:16:05.894Z,4.40
2017-10-15T13:17:09.186Z,4.03
2017-10-15T13:18:12.477Z,4.67
2017-10-15T13:19:15.757Z,6.33
2017-10-15T13:20:19.081Z,3.67
2017-10-15T13:21:21.598Z,3.93
2017-10-15T13:22:24.883Z,6.97
2017-10-15T13:23:28.174Z,4.30
2017-10-15T13:24:31.467Z,4.40
2017-10-15T13:25:34.038Z,4.53
2017-10-15T13:26:36.553Z,5.20
2017-10-15T13:27:39.079Z,6.57
2017-10-15T13:28:41.592Z,6.83
2017-10-15T13:29:44.121Z,4.83
2017-10-15T13:30:46.688Z,4.33
2017-10-15T13:31:49.215Z,5.80
2017-10-15T13:32:52.495Z,4.10
2017-10-15T13:33:55.787Z,4.50
2017-10-15T13:34:59.082Z,4.70
2017-10-15T13:36:01.635Z,3.50
2017-10-15T13:37:04.922Z,14.93
2017-10-15T13:38:07.451Z,3.50
2017-10-15T13:39:10.002Z,4.97